Time;durP1;ratioP1;P1;durP2;ratioP2;P2;SDS_P1;SDS_P2;PMS_P1;PMS_P2;Temp;Humidity;BMP_temperature;BMP_pressure;BME280_temperature;BME280_humidity;BME280_pressure;Samples;Min_cycle;Max_cycle;Signal;HPM_P1;HPM_P2
2023/08/17 00:00:23;;;;;;;2.30;1.10;;;21.20;99.90;;;;;;5138090;27;20426;-61
2023/08/17 00:02:50;;;;;;;1.40;1.00;;;21.30;99.90;;;;;;5138605;27;20447;-61
2023/08/17 00:05:19;;;;;;;1.75;1.10;;;21.30;99.90;;;;;;5138328;27;20457;-60
2023/08/17 00:07:46;;;;;;;2.17;1.10;;;21.30;99.90;;;;;;5137592;27;20919;-61
2023/08/17 00:10:13;;;;;;;1.60;1.10;;;21.30;99.90;;;;;;5137549;27;20426;-61
2023/08/17 00:12:40;;;;;;;2.22;1.10;;;21.40;99.90;;;;;;5137352;27;20418;-61
2023/08/17 00:15:07;;;;;;;2.30;1.30;;;21.40;99.90;;;;;;5137837;27;20422;-61
2023/08/17 00:17:34;;;;;;;1.70;1.10;;;21.40;99.90;;;;;;5137452;27;20510;-60
2023/08/17 00:20:04;;;;;;;2.80;1.20;;;21.30;99.90;;;;;;5137722;27;20410;-60
2023/08/17 00:22:33;;;;;;;2.65;1.23;;;21.30;99.90;;;;;;5137933;27;20834;-61
2023/08/17 00:25:00;;;;;;;1.63;1.20;;;21.30;99.90;;;;;;5137691;27;20430;-61
2023/08/17 00:27:27;;;;;;;2.83;1.10;;;21.30;99.90;;;;;;5137904;27;20426;-61
2023/08/17 00:29:54;;;;;;;3.70;1.38;;;21.30;99.90;;;;;;5137095;27;20430;-61
2023/08/17 00:32:21;;;;;;;1.80;1.45;;;21.40;99.90;;;;;;5137379;27;20418;-61
2023/08/17 00:34:47;;;;;;;1.90;1.10;;;21.40;99.90;;;;;;5136629;27;20415;-61
2023/08/17 00:37:14;;;;;;;1.80;1.10;;;21.40;99.90;;;;;;5135841;27;20860;-61
2023/08/17 00:39:43;;;;;;;2.50;1.40;;;21.50;99.90;;;;;;5135637;27;20806;-61
2023/08/17 00:42:10;;;;;;;2.80;1.30;;;21.60;99.90;;;;;;5135301;27;20480;-61
2023/08/17 00:44:37;;;;;;;1.90;1.30;;;21.50;99.90;;;;;;5136002;27;20465;-61
2023/08/17 00:47:05;;;;;;;1.80;1.30;;;21.40;99.90;;;;;;5134370;27;20592;-61
2023/08/17 00:49:32;;;;;;;1.90;1.10;;;21.40;99.90;;;;;;5135506;27;20414;-61
2023/08/17 00:51:59;;;;;;;2.10;1.20;;;21.30;99.90;;;;;;5136784;27;20449;-61
2023/08/17 00:54:30;;;;;;;2.38;1.20;;;21.30;99.90;;;;;;5136582;27;20426;-61
2023/08/17 00:56:59;;;;;;;2.55;1.20;;;21.10;99.90;;;;;;5135960;27;20421;-60
2023/08/17 00:59:26;;;;;;;2.80;1.20;;;21.10;99.90;;;;;;5136468;27;20521;-61
2023/08/17 01:01:53;;;;;;;2.10;1.30;;;21.00;99.90;;;;;;5136321;27;20471;-61
2023/08/17 01:04:20;;;;;;;1.80;1.30;;;21.00;99.90;;;;;;5137388;27;20414;-60
2023/08/17 01:06:47;;;;;;;1.50;1.20;;;21.00;99.90;;;;;;5136778;27;20480;-61
2023/08/17 01:09:14;;;;;;;1.88;1.20;;;20.90;99.90;;;;;;5136529;27;20471;-61
2023/08/17 01:11:48;;;;;;;2.05;1.30;;;20.90;99.90;;;;;;5136752;27;20771;-60
2023/08/17 01:14:25;;;;;;;1.50;1.30;;;20.80;99.90;;;;;;5136797;27;20475;-60
2023/08/17 01:17:00;;;;;;;2.53;1.23;;;20.80;99.90;;;;;;5136506;27;20417;-61
2023/08/17 01:19:28;;;;;;;2.10;1.30;;;20.90;99.90;;;;;;5136479;27;20491;-61
2023/08/17 01:22:01;;;;;;;1.40;1.20;;;20.90;99.90;;;;;;5136429;27;20426;-61
2023/08/17 01:24:29;;;;;;;2.10;1.30;;;20.90;99.90;;;;;;5136076;27;20422;-59
2023/08/17 01:26:56;;;;;;;2.10;1.20;;;20.90;99.90;;;;;;5136720;27;20422;-59
2023/08/17 01:29:23;;;;;;;1.50;1.20;;;20.90;99.90;;;;;;5135890;27;20729;-59
2023/08/17 01:31:59;;;;;;;1.50;1.10;;;20.90;99.90;;;;;;5136363;27;20778;-60
2023/08/17 01:34:28;;;;;;;1.98;1.30;;;21.00;99.90;;;;;;5136534;27;20567;-60
2023/08/17 01:36:59;;;;;;;3.00;1.35;;;21.00;99.90;;;;;;5136253;27;20422;-61
2023/08/17 01:39:35;;;;;;;2.42;1.23;;;21.00;99.90;;;;;;5135932;27;20853;-61
2023/08/17 01:42:03;;;;;;;3.10;1.10;;;21.10;99.90;;;;;;5136269;27;20445;-61
2023/08/17 01:44:30;;;;;;;2.15;1.10;;;21.20;99.90;;;;;;5135881;27;21094;-60
2023/08/17 01:46:58;;;;;;;2.30;1.10;;;21.20;99.90;;;;;;5135263;27;20643;-60
2023/08/17 01:49:25;;;;;;;2.25;1.30;;;21.20;99.90;;;;;;5135357;27;20422;-60
2023/08/17 01:51:52;;;;;;;1.50;1.20;;;21.30;99.90;;;;;;5134850;27;20476;-60
2023/08/17 01:54:19;;;;;;;2.40;1.20;;;21.30;99.90;;;;;;5136312;27;20426;-62
2023/08/17 01:56:47;;;;;;;2.40;1.30;;;21.30;99.90;;;;;;5135508;27;20470;-60
2023/08/17 01:59:14;;;;;;;1.75;1.10;;;21.40;99.90;;;;;;5135421;27;20483;-60
2023/08/17 02:01:41;;;;;;;2.30;1.20;;;21.50;99.90;;;;;;5135636;27;20471;-60
2023/08/17 02:04:08;;;;;;;1.80;1.13;;;21.40;99.90;;;;;;5135891;27;20426;-60
2023/08/17 02:06:35;;;;;;;1.58;1.20;;;21.40;99.90;;;;;;5135743;27;20421;-60
2023/08/17 02:09:02;;;;;;;3.23;1.30;;;21.30;99.90;;;;;;5136205;27;20495;-60
2023/08/17 02:11:29;;;;;;;2.20;1.30;;;21.30;99.90;;;;;;5135685;27;20422;-60
2023/08/17 02:13:57;;;;;;;4.35;1.50;;;21.30;99.90;;;;;;5135324;27;20423;-60
2023/08/17 02:16:24;;;;;;;2.97;2.10;;;21.30;99.90;;;;;;5135177;27;20410;-60
2023/08/17 02:18:51;;;;;;;2.67;1.60;;;21.30;99.90;;;;;;5135348;27;20434;-60
2023/08/17 02:21:18;;;;;;;5.25;2.60;;;21.30;99.90;;;;;;5134726;27;20418;-60
2023/08/17 02:23:45;;;;;;;3.60;2.22;;;21.10;99.90;;;;;;5134967;27;20422;-59
2023/08/17 02:26:12;;;;;;;4.40;2.30;;;21.10;99.90;;;;;;5134783;27;20834;-59
2023/08/17 02:28:39;;;;;;;2.90;1.80;;;21.10;99.90;;;;;;5135119;27;20415;-61
2023/08/17 02:31:07;;;;;;;3.80;2.20;;;21.20;99.90;;;;;;5135091;27;20435;-60
2023/08/17 02:33:36;;;;;;;2.88;2.28;;;21.20;99.90;;;;;;5135338;28;20909;-60
2023/08/17 02:36:04;;;;;;;3.40;2.33;;;21.30;99.90;;;;;;5135792;28;20799;-60
2023/08/17 02:38:31;;;;;;;4.70;2.75;;;21.30;99.90;;;;;;5133902;28;20842;-60
2023/08/17 02:40:58;;;;;;;3.95;2.47;;;21.30;99.90;;;;;;5133749;28;20418;-60
2023/08/17 02:43:25;;;;;;;3.92;2.78;;;21.20;99.90;;;;;;5134255;28;20768;-61
2023/08/17 02:45:52;;;;;;;2.95;1.60;;;21.00;99.90;;;;;;5133776;27;20418;-60
2023/08/17 02:48:20;;;;;;;4.65;2.75;;;21.10;99.90;;;;;;5133669;28;20421;-61
2023/08/17 02:50:47;;;;;;;4.03;2.55;;;21.10;99.90;;;;;;5133359;28;20849;-60
2023/08/17 02:53:14;;;;;;;4.13;2.60;;;21.10;99.90;;;;;;5133905;28;20414;-60
2023/08/17 02:55:41;;;;;;;6.07;3.40;;;21.10;99.90;;;;;;5133624;28;20467;-60
2023/08/17 02:58:08;;;;;;;3.67;2.50;;;21.10;99.90;;;;;;5134101;28;20837;-60
2023/08/17 03:00:35;;;;;;;4.43;3.33;;;21.10;99.90;;;;;;5135368;28;20426;-60
2023/08/17 03:03:03;;;;;;;5.00;2.47;;;21.10;99.90;;;;;;5135292;27;20421;-60
2023/08/17 03:05:31;;;;;;;5.75;2.85;;;21.10;99.90;;;;;;5136535;27;20428;-60
2023/08/17 03:07:58;;;;;;;4.30;2.83;;;21.10;99.90;;;;;;5134718;27;20414;-60
2023/08/17 03:10:25;;;;;;;3.80;2.60;;;21.00;99.90;;;;;;5139052;27;20414;-59
2023/08/17 03:12:52;;;;;;;3.58;2.40;;;21.00;99.90;;;;;;5138865;27;20453;-59
2023/08/17 03:15:19;;;;;;;4.50;2.45;;;21.00;99.90;;;;;;5138262;27;20506;-60
2023/08/17 03:17:47;;;;;;;3.90;3.20;;;21.00;99.90;;;;;;5138551;27;20471;-60
2023/08/17 03:20:13;;;;;;;3.80;2.37;;;20.90;99.90;;;;;;5138248;27;20479;-61
2023/08/17 03:22:42;;;;;;;5.10;3.10;;;20.90;99.90;;;;;;5138745;27;20418;-61
2023/08/17 03:25:09;;;;;;;5.10;2.50;;;20.90;99.90;;;;;;5139239;27;20418;-60
2023/08/17 03:27:37;;;;;;;5.20;2.60;;;20.80;99.90;;;;;;5139500;27;20418;-60
2023/08/17 03:30:04;;;;;;;4.13;2.63;;;20.80;99.90;;;;;;5139155;27;20426;-60
2023/08/17 03:32:31;;;;;;;4.20;2.80;;;20.80;99.90;;;;;;5138537;27;20619;-60
2023/08/17 03:34:58;;;;;;;4.35;2.60;;;20.80;99.90;;;;;;5137964;27;20421;-60
2023/08/17 03:37:25;;;;;;;6.38;3.05;;;20.80;99.90;;;;;;5138665;27;20463;-60
2023/08/17 03:39:54;;;;;;;8.55;3.25;;;20.70;99.90;;;;;;5138374;27;20857;-60
2023/08/17 03:42:21;;;;;;;5.35;3.60;;;20.70;99.90;;;;;;5138348;27;20422;-60
2023/08/17 03:44:48;;;;;;;5.18;3.17;;;20.70;99.90;;;;;;5138252;27;20623;-60
2023/08/17 03:47:15;;;;;;;5.13;2.57;;;20.70;99.90;;;;;;5137464;27;20422;-60
2023/08/17 03:49:42;;;;;;;5.07;3.45;;;20.60;99.90;;;;;;5137109;27;20509;-60
2023/08/17 03:52:09;;;;;;;4.55;2.88;;;20.60;99.90;;;;;;5137070;27;20714;-60
2023/08/17 03:54:37;;;;;;;4.63;3.00;;;20.60;99.90;;;;;;5136832;27;20845;-60
2023/08/17 03:57:05;;;;;;;5.70;3.30;;;20.60;99.90;;;;;;5136907;27;20826;-60
2023/08/17 03:59:32;;;;;;;5.50;3.40;;;20.60;99.90;;;;;;5136932;27;20430;-60
2023/08/17 04:01:59;;;;;;;6.57;3.50;;;20.60;99.90;;;;;;5137926;27;20426;-60
2023/08/17 04:04:27;;;;;;;4.55;3.50;;;20.60;99.90;;;;;;5138097;27;20419;-60
2023/08/17 04:06:54;;;;;;;4.18;2.90;;;20.60;99.90;;;;;;5138019;27;20422;-60
2023/08/17 04:09:21;;;;;;;4.40;3.50;;;20.60;99.90;;;;;;5137877;27;20830;-60
2023/08/17 04:11:48;;;;;;;4.68;3.30;;;20.60;99.90;;;;;;5137728;27;20418;-60
2023/08/17 04:14:16;;;;;;;4.18;2.45;;;20.60;99.90;;;;;;5137800;27;20428;-60
2023/08/17 04:16:43;;;;;;;3.88;2.72;;;20.60;99.90;;;;;;5138222;27;20471;-60
2023/08/17 04:19:10;;;;;;;5.60;2.90;;;20.70;99.90;;;;;;5138256;27;20434;-60
2023/08/17 04:21:37;;;;;;;5.75;3.45;;;20.70;99.90;;;;;;5137632;27;20410;-59
2023/08/17 04:24:05;;;;;;;3.42;2.50;;;20.80;99.90;;;;;;5136186;27;20482;-60
2023/08/17 04:26:32;;;;;;;4.53;3.90;;;20.90;99.90;;;;;;5137086;27;20415;-59
2023/08/17 04:28:59;;;;;;;5.50;5.00;;;21.10;99.90;;;;;;5137508;27;20410;-60
2023/08/17 04:31:27;;;;;;;5.63;4.43;;;21.00;99.90;;;;;;5137485;27;20426;-60
2023/08/17 04:33:54;;;;;;;4.05;3.00;;;21.00;99.90;;;;;;5137295;27;20772;-61
2023/08/17 04:36:21;;;;;;;5.72;4.25;;;21.10;99.90;;;;;;5136536;27;20783;-62
2023/08/17 04:38:48;;;;;;;5.65;4.05;;;21.20;99.90;;;;;;5136519;27;20503;-60
2023/08/17 04:41:16;;;;;;;6.97;4.15;;;21.10;99.90;;;;;;5135623;27;20414;-60
2023/08/17 04:43:46;;;;;;;6.72;4.55;;;21.20;99.90;;;;;;5130208;27;20414;-61
2023/08/17 04:46:13;;;;;;;7.10;5.17;;;21.10;99.90;;;;;;5137237;27;20513;-61
2023/08/17 04:48:41;;;;;;;7.10;4.63;;;21.00;99.90;;;;;;5133861;27;20418;-61
2023/08/17 04:51:08;;;;;;;5.28;4.03;;;20.90;99.90;;;;;;5134984;27;20650;-61
2023/08/17 04:53:35;;;;;;;7.00;4.85;;;20.90;99.90;;;;;;5134384;27;20483;-61
2023/08/17 04:56:03;;;;;;;8.38;5.53;;;21.00;99.90;;;;;;5133790;27;20418;-61
2023/08/17 04:58:30;;;;;;;6.43;4.40;;;20.90;99.90;;;;;;5133865;27;20422;-61
2023/08/17 05:00:57;;;;;;;7.55;4.15;;;21.00;99.90;;;;;;5134490;27;20422;-61
2023/08/17 05:03:24;;;;;;;6.63;4.50;;;21.00;99.90;;;;;;5135400;27;20849;-61
2023/08/17 05:05:54;;;;;;;6.28;4.55;;;21.00;99.90;;;;;;5135492;27;20475;-61
2023/08/17 05:08:22;;;;;;;6.75;4.25;;;20.90;99.90;;;;;;5136771;27;20421;-61
2023/08/17 05:10:49;;;;;;;5.03;3.70;;;20.90;99.90;;;;;;5137060;27;20410;-61
2023/08/17 05:13:16;;;;;;;5.32;4.13;;;20.90;99.90;;;;;;5136847;27;20471;-62
2023/08/17 05:15:43;;;;;;;6.05;4.10;;;20.90;99.90;;;;;;5136812;27;20415;-61
2023/08/17 05:18:10;;;;;;;7.07;4.60;;;20.90;99.90;;;;;;5136056;27;20427;-61
2023/08/17 05:20:37;;;;;;;7.90;5.20;;;20.90;99.90;;;;;;5134395;27;20430;-61
2023/08/17 05:23:05;;;;;;;6.05;4.43;;;20.90;99.90;;;;;;5135070;27;20463;-61
2023/08/17 05:25:32;;;;;;;8.55;4.75;;;20.90;99.90;;;;;;5136396;27;20727;-61
2023/08/17 05:27:59;;;;;;;8.50;5.28;;;20.90;99.90;;;;;;5135444;27;20442;-62
2023/08/17 05:30:26;;;;;;;7.78;4.90;;;20.90;99.90;;;;;;5135013;27;20752;-61
2023/08/17 05:32:53;;;;;;;5.75;4.40;;;20.90;99.90;;;;;;5135500;27;20418;-61
2023/08/17 05:35:20;;;;;;;6.72;4.32;;;20.90;99.90;;;;;;5135715;27;20464;-61
2023/08/17 05:37:47;;;;;;;8.05;5.60;;;20.80;99.90;;;;;;5135775;27;20471;-62
2023/08/17 05:40:15;;;;;;;9.13;5.60;;;20.80;99.90;;;;;;5135406;27;20435;-61
2023/08/17 05:42:42;;;;;;;7.70;5.20;;;20.80;99.90;;;;;;5135677;27;20429;-61
2023/08/17 05:45:10;;;;;;;8.02;6.03;;;20.90;99.90;;;;;;5135286;27;20483;-62
2023/08/17 05:47:37;;;;;;;6.18;4.20;;;20.90;99.90;;;;;;5133806;27;20419;-61
2023/08/17 05:50:05;;;;;;;4.87;3.10;;;21.00;99.90;;;;;;5134489;27;20825;-61
2023/08/17 05:52:32;;;;;;;6.90;4.65;;;21.20;99.90;;;;;;5134553;27;20964;-61
2023/08/17 05:54:59;;;;;;;7.82;3.90;;;21.30;99.90;;;;;;5135328;27;20415;-61
2023/08/17 05:57:28;;;;;;;5.20;3.92;;;21.50;99.90;;;;;;5134035;27;20422;-61
2023/08/17 05:59:55;;;;;;;7.10;4.03;;;21.60;99.90;;;;;;5133887;27;20433;-61
2023/08/17 06:02:22;;;;;;;4.30;3.70;;;21.50;99.90;;;;;;5134327;27;20426;-61
2023/08/17 06:04:49;;;;;;;5.90;4.40;;;21.40;99.90;;;;;;5123392;27;20424;-62
2023/08/17 06:07:16;;;;;;;6.07;4.38;;;21.50;99.90;;;;;;5122124;27;20449;-60
2023/08/17 06:09:43;;;;;;;6.25;4.38;;;21.50;99.90;;;;;;5121841;27;20524;-61
2023/08/17 06:12:10;;;;;;;7.82;4.78;;;21.60;99.90;;;;;;5118115;27;20472;-62
2023/08/17 06:14:38;;;;;;;5.60;4.30;;;21.60;99.90;;;;;;5120963;27;20907;-62
2023/08/17 06:17:05;;;;;;;5.70;4.20;;;21.60;99.90;;;;;;5136265;27;20414;-61
2023/08/17 06:19:33;;;;;;;5.80;4.10;;;21.60;99.90;;;;;;5133635;27;20426;-61
2023/08/17 06:22:00;;;;;;;7.35;5.18;;;21.70;99.90;;;;;;5132926;27;20465;-61
2023/08/17 06:24:27;;;;;;;5.45;4.38;;;21.70;99.90;;;;;;5133414;27;20519;-61
2023/08/17 06:26:54;;;;;;;5.90;4.30;;;21.60;99.90;;;;;;5132437;27;20418;-61
2023/08/17 06:29:21;;;;;;;5.25;3.90;;;21.60;99.90;;;;;;5132456;27;20414;-61
2023/08/17 06:31:49;;;;;;;3.57;3.20;;;21.70;99.90;;;;;;5133327;28;20487;-62
2023/08/17 06:34:16;;;;;;;4.40;4.00;;;21.90;99.90;;;;;;5116898;28;20855;-62
2023/08/17 06:36:43;;;;;;;5.15;3.53;;;22.10;99.90;;;;;;5111872;28;20435;-62
2023/08/17 06:39:10;;;;;;;4.75;3.13;;;22.10;99.90;;;;;;5113700;28;20419;-62
2023/08/17 06:41:37;;;;;;;3.50;2.90;;;22.30;99.90;;;;;;5117550;28;20481;-64
2023/08/17 06:44:05;;;;;;;3.70;2.30;;;22.50;99.90;;;;;;5116572;28;20423;-64
2023/08/17 06:46:32;;;;;;;4.50;3.90;;;22.60;99.90;;;;;;5135697;27;20471;-63
2023/08/17 06:49:01;;;;;;;5.03;3.55;;;22.60;99.90;;;;;;5134538;27;20430;-63
2023/08/17 06:51:28;;;;;;;6.07;3.30;;;22.50;99.90;;;;;;5117215;27;20911;-63
2023/08/17 06:53:55;;;;;;;5.63;4.03;;;22.40;99.90;;;;;;5116575;28;20777;-62
2023/08/17 06:56:22;;;;;;;5.60;4.40;;;22.30;99.90;;;;;;5115796;28;20472;-61
2023/08/17 06:58:49;;;;;;;3.33;2.70;;;22.30;99.90;;;;;;5115192;28;20815;-62
2023/08/17 07:01:16;;;;;;;5.32;3.28;;;22.40;99.90;;;;;;5114807;28;20428;-62
2023/08/17 07:03:43;;;;;;;4.35;3.33;;;22.50;99.90;;;;;;5116315;28;20416;-62
2023/08/17 07:06:11;;;;;;;6.60;4.32;;;22.60;99.90;;;;;;5117753;28;20497;-62
2023/08/17 07:08:38;;;;;;;4.38;3.53;;;22.70;99.90;;;;;;5117264;28;20814;-62
2023/08/17 07:11:08;;;;;;;5.32;3.78;;;22.70;99.90;;;;;;5117389;28;20412;-63
2023/08/17 07:13:35;;;;;;;4.57;3.20;;;22.60;99.90;;;;;;5116067;28;20419;-62
2023/08/17 07:16:02;;;;;;;5.65;3.10;;;22.60;99.90;;;;;;5115631;28;20424;-62
2023/08/17 07:18:29;;;;;;;4.90;3.72;;;22.60;99.90;;;;;;5114396;28;20781;-63
2023/08/17 07:20:56;;;;;;;4.40;3.90;;;22.60;99.90;;;;;;5114067;27;20434;-62
2023/08/17 07:23:24;;;;;;;5.90;3.28;;;22.70;99.90;;;;;;5130638;27;20423;-63
2023/08/17 07:25:51;;;;;;;7.03;4.50;;;22.70;99.90;;;;;;5132621;27;20929;-63
2023/08/17 07:28:18;;;;;;;5.50;4.10;;;22.80;99.90;;;;;;5133586;27;20418;-62
2023/08/17 07:30:45;;;;;;;5.00;2.70;;;22.60;99.90;;;;;;5132823;27;20480;-62
2023/08/17 07:33:12;;;;;;;7.20;4.15;;;22.60;99.90;;;;;;5131847;27;20421;-63
2023/08/17 07:35:39;;;;;;;5.22;3.70;;;22.60;99.90;;;;;;5125654;27;20434;-63
2023/08/17 07:38:06;;;;;;;4.75;3.75;;;22.70;99.90;;;;;;5142374;27;20409;-62
2023/08/17 07:40:35;;;;;;;4.40;2.90;;;22.80;99.90;;;;;;5136592;27;20423;-62
2023/08/17 07:43:02;;;;;;;4.43;3.00;;;22.80;99.90;;;;;;5137522;27;20426;-63
2023/08/17 07:45:29;;;;;;;3.67;2.63;;;22.80;99.90;;;;;;5137767;27;20418;-61
2023/08/17 07:47:56;;;;;;;6.68;4.45;;;22.90;99.90;;;;;;5137003;27;20418;-62
2023/08/17 07:50:23;;;;;;;5.97;4.22;;;23.10;99.90;;;;;;5134599;27;20414;-62
2023/08/17 07:52:50;;;;;;;4.43;3.63;;;23.20;99.90;;;;;;5129286;27;20483;-62
2023/08/17 07:55:17;;;;;;;4.18;3.20;;;23.10;99.90;;;;;;5126265;27;20803;-62
2023/08/17 07:57:45;;;;;;;4.07;3.50;;;23.00;99.90;;;;;;5127999;27;20872;-62
2023/08/17 08:00:13;;;;;;;4.78;3.40;;;23.00;99.90;;;;;;5125254;27;20799;-62
2023/08/17 08:02:40;;;;;;;4.00;2.63;;;23.20;99.90;;;;;;5134908;27;20475;-63
2023/08/17 08:05:08;;;;;;;3.35;2.08;;;23.40;99.90;;;;;;5124128;27;20480;-62
2023/08/17 08:07:35;;;;;;;3.70;3.30;;;23.60;98.60;;;;;;5120146;27;20422;-64
2023/08/17 08:10:01;;;;;;;3.83;3.42;;;23.80;66.50;;;;;;5127361;27;20479;-63
2023/08/17 08:12:29;;;;;;;5.32;3.42;;;23.80;67.80;;;;;;5133660;27;20499;-63
2023/08/17 08:14:57;;;;;;;3.10;2.80;;;23.90;55.50;;;;;;5130278;27;20491;-64
2023/08/17 08:17:24;;;;;;;4.10;2.88;;;23.90;64.50;;;;;;5133474;27;20872;-63
2023/08/17 08:19:51;;;;;;;3.70;2.00;;;24.00;53.50;;;;;;5126039;27;20422;-64
2023/08/17 08:22:18;;;;;;;2.72;2.20;;;24.20;43.30;;;;;;5118367;27;20439;-63
2023/08/17 08:24:45;;;;;;;5.05;3.42;;;24.30;24.90;;;;;;5117203;27;20427;-62
2023/08/17 08:27:12;;;;;;;4.07;3.28;;;24.40;8.30;;;;;;5133223;27;20501;-63
2023/08/17 08:29:39;;;;;;;3.50;2.13;;;24.30;18.70;;;;;;5122623;27;20427;-64
2023/08/17 08:32:08;;;;;;;4.50;2.50;;;24.30;27.60;;;;;;5123102;27;20422;-64
2023/08/17 08:34:35;;;;;;;3.15;2.38;;;24.40;18.20;;;;;;5135906;27;20526;-62
2023/08/17 08:37:01;;;;;;;3.40;3.10;;;24.50;16.80;;;;;;5137274;27;20710;-63
2023/08/17 08:39:28;;;;;;;3.72;2.10;;;24.30;8.20;;;;;;5131333;27;20435;-63
2023/08/17 08:41:56;;;;;;;2.60;1.80;;;24.30;25.70;;;;;;5117795;27;20843;-64
2023/08/17 08:44:23;;;;;;;2.78;1.80;;;24.40;22.10;;;;;;5115333;28;20420;-64
2023/08/17 08:46:50;;;;;;;2.60;1.70;;;24.50;15.90;;;;;;5114487;27;20424;-64
2023/08/17 08:49:25;;;;;;;3.42;2.70;;;24.70;8.90;;;;;;5120621;27;20428;-64
2023/08/17 08:51:53;;;;;;;3.08;2.40;;;24.90;1.00;;;;;;5155359;27;20477;-64
2023/08/17 08:54:22;;;;;;;2.50;1.95;;;24.80;1.00;;;;;;5141651;27;20528;-63
2023/08/17 08:56:54;;;;;;;2.58;1.90;;;25.00;1.00;;;;;;5134617;27;20563;-63
2023/08/17 08:59:22;;;;;;;2.70;2.00;;;25.00;1.00;;;;;;5134291;27;20411;-63
2023/08/17 09:01:49;;;;;;;2.50;1.70;;;25.00;1.00;;;;;;5133056;27;20440;-65
2023/08/17 09:04:18;;;;;;;3.80;1.90;;;25.10;1.00;;;;;;5134747;27;20421;-65
2023/08/17 09:06:46;;;;;;;3.60;1.83;;;25.30;1.00;;;;;;5136216;27;20422;-64
2023/08/17 09:09:16;;;;;;;2.70;1.60;;;25.20;1.00;;;;;;5135961;27;20422;-64
2023/08/17 09:11:43;;;;;;;2.65;1.83;;;25.20;1.00;;;;;;5136161;27;20511;-66
2023/08/17 09:14:10;;;;;;;2.40;1.80;;;25.20;1.00;;;;;;5134221;27;20418;-64
2023/08/17 09:16:37;;;;;;;2.25;1.70;;;25.20;1.00;;;;;;5134220;27;20415;-65
2023/08/17 09:19:05;;;;;;;2.08;1.73;;;25.20;1.00;;;;;;5133768;27;20791;-65
2023/08/17 09:21:34;;;;;;;3.30;1.50;;;25.20;1.00;;;;;;5133928;27;20806;-64
2023/08/17 09:24:01;;;;;;;1.80;1.25;;;25.20;1.00;;;;;;5134231;27;20419;-65
2023/08/17 09:26:32;;;;;;;3.10;1.45;;;25.30;1.00;;;;;;5134320;27;20886;-64
2023/08/17 09:29:01;;;;;;;1.83;1.40;;;25.60;1.00;;;;;;5133514;27;20446;-65
2023/08/17 09:31:32;;;;;;;1.80;1.20;;;25.50;1.00;;;;;;5131555;27;20546;-64
2023/08/17 09:33:59;;;;;;;1.70;1.40;;;25.70;1.00;;;;;;5132464;27;20454;-65
2023/08/17 09:36:27;;;;;;;2.00;1.50;;;25.90;1.00;;;;;;5133300;27;20419;-64
2023/08/17 09:38:57;;;;;;;2.13;1.70;;;26.20;1.00;;;;;;5134529;27;20422;-65
2023/08/17 09:41:24;;;;;;;2.00;1.50;;;26.40;1.00;;;;;;5134056;27;20448;-64
2023/08/17 09:43:51;;;;;;;1.60;1.35;;;26.50;1.00;;;;;;5137308;27;20488;-66
2023/08/17 09:46:19;;;;;;;1.90;1.30;;;26.40;1.00;;;;;;5149659;27;20867;-66
2023/08/17 09:48:46;;;;;;;1.60;1.50;;;26.50;1.00;;;;;;5114903;27;20474;-66
2023/08/17 09:51:16;;;;;;;2.80;1.50;;;26.50;1.00;;;;;;5112740;27;20508;-66
2023/08/17 09:53:44;;;;;;;1.60;1.30;;;26.50;1.00;;;;;;5131974;27;20430;-65
2023/08/17 09:56:13;;;;;;;2.80;1.60;;;26.60;1.00;;;;;;5115228;27;20420;-67
2023/08/17 09:58:40;;;;;;;3.20;2.20;;;26.70;1.00;;;;;;5121156;27;20860;-66
2023/08/17 10:01:09;;;;;;;2.83;2.30;;;26.80;1.00;;;;;;5121657;27;20444;-65
2023/08/17 10:03:38;;;;;;;2.25;1.90;;;26.80;1.00;;;;;;5111534;28;20420;-65
2023/08/17 10:06:07;;;;;;;2.80;2.17;;;26.90;1.00;;;;;;5112162;28;20488;-66
2023/08/17 10:08:41;;;;;;;3.50;2.50;;;27.20;1.00;;;;;;5113596;27;20416;-66
2023/08/17 10:11:09;;;;;;;3.30;3.00;;;27.30;1.00;;;;;;5123634;27;20410;-66
2023/08/17 10:13:44;;;;;;;2.20;1.80;;;27.30;99.90;;;;;;5133963;27;20410;-68
2023/08/17 10:16:22;;;;;;;3.17;2.00;;;27.30;99.90;;;;;;5126289;27;20433;-68
2023/08/17 10:18:56;;;;;;;2.50;2.03;;;27.40;99.90;;;;;;5133120;27;20849;-68
2023/08/17 10:21:29;;;;;;;2.50;2.00;;;27.40;99.90;;;;;;5134115;27;20719;-68
2023/08/17 10:23:58;;;;;;;2.70;1.77;;;27.60;41.70;;;;;;5123124;27;20440;-68
2023/08/17 10:26:26;;;;;;;3.25;2.08;;;27.90;1.00;;;;;;5133687;27;20416;-68
2023/08/17 10:28:58;;;;;;;3.50;2.03;;;28.10;1.00;;;;;;5130993;27;20418;-68
2023/08/17 10:31:26;;;;;;;2.80;1.70;;;28.20;1.00;;;;;;5132851;27;20458;-68
2023/08/17 10:33:54;;;;;;;2.50;2.20;;;28.10;99.90;;;;;;5133191;27;20430;-68
2023/08/17 10:36:25;;;;;;;2.83;2.00;;;28.10;52.40;;;;;;5131042;27;20418;-68
2023/08/17 10:39:21;;;;;;;3.10;2.30;;;28.30;1.00;;;;;;5129321;28;20745;-69
2023/08/17 10:41:50;;;;;;;2.70;2.05;;;28.30;1.00;;;;;;5128479;28;20435;-68
2023/08/17 10:44:39;;;;;;;3.47;1.98;;;28.70;1.00;;;;;;5128342;28;20459;-68
2023/08/17 10:47:21;;;;;;;2.25;1.50;;;29.20;1.00;;;;;;5117320;27;20757;-69
2023/08/17 10:49:50;;;;;;;1.90;1.47;;;29.60;25.40;;;;;;5132375;28;20420;-69
2023/08/17 10:52:29;;;;;;;2.30;1.70;;;29.90;1.00;;;;;;5132424;28;20498;-70
2023/08/17 10:54:57;;;;;;;2.50;2.00;;;29.80;1.00;;;;;;5153960;27;20465;-70
2023/08/17 10:57:34;;;;;;;2.55;1.75;;;29.40;1.00;;;;;;5152979;27;20409;-70
2023/08/17 11:00:21;;;;;;;2.17;1.98;;;29.20;24.50;;;;;;5151313;27;20496;-70
2023/08/17 11:02:56;;;;;;;2.60;2.03;;;29.40;99.90;;;;;;5129125;27;20435;-69
2023/08/17 11:05:42;;;;;;;2.00;1.70;;;29.70;1.00;;;;;;5116344;28;20975;-70
2023/08/17 11:08:10;;;;;;;2.35;2.00;;;29.90;1.00;;;;;;5115639;28;20428;-69
2023/08/17 11:10:38;;;;;;;2.70;1.60;;;29.90;1.00;;;;;;5111174;28;20489;-71
2023/08/17 11:13:07;;;;;;;2.70;2.38;;;29.90;1.00;;;;;;5112106;27;20442;-70
2023/08/17 11:15:42;;;;;;;2.50;1.98;;;30.00;1.00;;;;;;5116443;28;20719;-71
2023/08/17 11:18:10;;;;;;;2.40;1.73;;;30.00;1.00;;;;;;5117119;28;20438;-70
2023/08/17 11:20:38;;;;;;;1.83;1.58;;;30.20;1.00;;;;;;5112950;28;20512;-70
2023/08/17 11:23:06;;;;;;;1.92;1.60;;;30.30;1.00;;;;;;5113539;28;20416;-70
2023/08/17 11:25:34;;;;;;;2.30;2.00;;;30.40;1.00;;;;;;5125255;27;20472;-70
2023/08/17 11:28:01;;;;;;;1.75;1.40;;;30.40;1.00;;;;;;5125837;27;20516;-70
2023/08/17 11:30:29;;;;;;;2.28;1.73;;;30.40;1.00;;;;;;5133749;27;20922;-69
2023/08/17 11:32:58;;;;;;;1.85;1.63;;;29.80;99.90;;;;;;5135948;27;20471;-69
2023/08/17 11:35:25;;;;;;;2.80;1.60;;;29.70;1.00;;;;;;5128209;27;20466;-69
2023/08/17 11:37:52;;;;;;;2.13;1.40;;;29.40;1.00;;;;;;5134544;27;21107;-68
2023/08/17 11:40:19;;;;;;;2.58;1.77;;;29.70;1.00;;;;;;5132779;27;20431;-69
2023/08/17 11:42:47;;;;;;;2.80;1.70;;;30.00;1.00;;;;;;5135650;27;20430;-69
2023/08/17 11:45:14;;;;;;;2.70;1.60;;;30.30;1.00;;;;;;5127925;27;20505;-68
2023/08/17 11:47:43;;;;;;;2.20;1.50;;;30.70;99.90;;;;;;5127342;27;20428;-69
2023/08/17 11:50:13;;;;;;;2.20;1.60;;;30.80;99.90;;;;;;5132458;27;20729;-68
2023/08/17 11:52:40;;;;;;;1.80;1.52;;;30.80;99.90;;;;;;5116608;27;20416;-69
2023/08/17 11:55:09;;;;;;;1.90;1.70;;;30.70;99.90;;;;;;5116309;28;20495;-69
2023/08/17 11:57:37;;;;;;;3.25;2.80;;;30.40;99.90;;;;;;5116276;28;20511;-68
2023/08/17 12:00:07;;;;;;;3.20;2.75;;;30.30;99.90;;;;;;5116484;28;20424;-69
2023/08/17 12:02:37;;;;;;;3.20;1.98;;;30.30;99.90;;;;;;5118960;27;20702;-68
2023/08/17 12:05:06;;;;;;;2.60;1.80;;;30.30;99.90;;;;;;5128489;27;20815;-68
2023/08/17 12:07:34;;;;;;;1.80;1.40;;;30.20;99.90;;;;;;5115473;27;20416;-71
2023/08/17 12:10:04;;;;;;;2.10;1.70;;;30.00;1.00;;;;;;5115186;27;20514;-71
2023/08/17 12:12:31;;;;;;;2.45;1.77;;;29.90;1.00;;;;;;5114332;27;20420;-68
2023/08/17 12:14:59;;;;;;;2.08;1.65;;;29.90;1.00;;;;;;5126755;27;21048;-67
2023/08/17 12:17:26;;;;;;;2.60;2.00;;;29.90;1.00;;;;;;5126241;27;20473;-67
2023/08/17 12:19:56;;;;;;;2.08;1.80;;;29.90;1.00;;;;;;5130577;27;20480;-67
2023/08/17 12:22:25;;;;;;;2.10;1.90;;;30.00;1.00;;;;;;5131826;27;20483;-66
2023/08/17 12:24:54;;;;;;;2.60;1.60;;;29.90;1.00;;;;;;5120059;27;20434;-67
2023/08/17 12:27:24;;;;;;;3.50;2.20;;;29.80;1.00;;;;;;5112594;27;20448;-67
2023/08/17 12:29:52;;;;;;;2.40;1.98;;;29.80;99.90;;;;;;5114751;27;20527;-67
2023/08/17 12:32:20;;;;;;;3.25;2.58;;;29.80;1.00;;;;;;5113159;27;20434;-67
2023/08/17 12:34:48;;;;;;;2.53;2.30;;;29.50;1.00;;;;;;5120448;27;20477;-66
2023/08/17 12:37:20;;;;;;;2.90;2.20;;;29.20;1.00;;;;;;5112344;27;20445;-66
2023/08/17 12:39:47;;;;;;;2.40;2.10;;;29.10;53.50;;;;;;5114325;27;20427;-67
2023/08/17 12:42:16;;;;;;;3.03;2.17;;;28.80;99.90;;;;;;5113789;27;20775;-66
2023/08/17 12:44:43;;;;;;;2.28;1.90;;;28.70;99.90;;;;;;5113091;27;20436;-67
2023/08/17 12:47:11;;;;;;;2.50;2.30;;;28.60;99.90;;;;;;5112227;27;20481;-66
2023/08/17 12:49:38;;;;;;;2.75;1.80;;;28.60;99.90;;;;;;5118925;27;20424;-66
2023/08/17 12:52:05;;;;;;;3.00;2.10;;;28.50;99.90;;;;;;5128210;27;20479;-66
2023/08/17 12:54:32;;;;;;;5.50;1.93;;;28.20;1.00;;;;;;5117221;27;20495;-66